sensor_id;sensor_type;location;lat;lon;timestamp;P1;durP1;ratioP1;P2;durP2;ratioP2
23670;SDS011;12012;51.998;7.614;2023-10-19T00:02:04;14.38;;;10.15;;
23670;SDS011;12012;51.998;7.614;2023-10-19T00:04:32;16.42;;;11.80;;
23670;SDS011;12012;51.998;7.614;2023-10-19T00:07:00;14.63;;;10.52;;
23670;SDS011;12012;51.998;7.614;2023-10-19T00:09:26;14.52;;;11.05;;
23670;SDS011;12012;51.998;7.614;2023-10-19T00:12:00;14.20;;;9.95;;
23670;SDS011;12012;51.998;7.614;2023-10-19T00:14:27;15.98;;;11.70;;
23670;SDS011;12012;51.998;7.614;2023-10-19T00:16:52;17.73;;;12.07;;
23670;SDS011;12012;51.998;7.614;2023-10-19T00:19:21;20.00;;;11.77;;
23670;SDS011;12012;51.998;7.614;2023-10-19T00:21:47;16.80;;;11.63;;
23670;SDS011;12012;51.998;7.614;2023-10-19T00:24:17;18.13;;;12.75;;
23670;SDS011;12012;51.998;7.614;2023-10-19T00:26:44;16.58;;;11.85;;
23670;SDS011;12012;51.998;7.614;2023-10-19T00:29:09;17.45;;;12.10;;
23670;SDS011;12012;51.998;7.614;2023-10-19T00:31:56;19.58;;;14.02;;
23670;SDS011;12012;51.998;7.614;2023-10-19T00:34:23;16.67;;;10.70;;
23670;SDS011;12012;51.998;7.614;2023-10-19T00:36:50;20.88;;;13.65;;
23670;SDS011;12012;51.998;7.614;2023-10-19T00:39:16;19.90;;;12.02;;
23670;SDS011;12012;51.998;7.614;2023-10-19T00:41:46;20.05;;;13.25;;
23670;SDS011;12012;51.998;7.614;2023-10-19T00:44:13;18.17;;;12.60;;
23670;SDS011;12012;51.998;7.614;2023-10-19T00:47:00;22.25;;;15.68;;
23670;SDS011;12012;51.998;7.614;2023-10-19T00:51:58;14.55;;;10.45;;
23670;SDS011;12012;51.998;7.614;2023-10-19T00:54:36;16.88;;;12.45;;
23670;SDS011;12012;51.998;7.614;2023-10-19T00:57:16;16.38;;;12.13;;
23670;SDS011;12012;51.998;7.614;2023-10-19T00:59:45;17.27;;;12.32;;
23670;SDS011;12012;51.998;7.614;2023-10-19T01:02:32;16.15;;;11.85;;
23670;SDS011;12012;51.998;7.614;2023-10-19T01:04:57;21.73;;;14.50;;
23670;SDS011;12012;51.998;7.614;2023-10-19T01:07:29;19.42;;;13.98;;
23670;SDS011;12012;51.998;7.614;2023-10-19T01:09:57;19.00;;;13.93;;
23670;SDS011;12012;51.998;7.614;2023-10-19T01:12:26;21.35;;;16.02;;
23670;SDS011;12012;51.998;7.614;2023-10-19T01:17:39;21.67;;;14.15;;
23670;SDS011;12012;51.998;7.614;2023-10-19T01:20:09;22.35;;;15.75;;
23670;SDS011;12012;51.998;7.614;2023-10-19T01:25:46;18.40;;;13.55;;
23670;SDS011;12012;51.998;7.614;2023-10-19T01:28:14;19.60;;;12.35;;
23670;SDS011;12012;51.998;7.614;2023-10-19T01:30:43;20.95;;;14.82;;
23670;SDS011;12012;51.998;7.614;2023-10-19T01:33:10;16.13;;;12.88;;
23670;SDS011;12012;51.998;7.614;2023-10-19T01:35:40;20.17;;;14.05;;
23670;SDS011;12012;51.998;7.614;2023-10-19T01:38:42;23.42;;;14.88;;
23670;SDS011;12012;51.998;7.614;2023-10-19T01:41:08;19.92;;;13.52;;
23670;SDS011;12012;51.998;7.614;2023-10-19T01:43:43;15.65;;;11.55;;
23670;SDS011;12012;51.998;7.614;2023-10-19T01:46:14;19.40;;;13.15;;
23670;SDS011;12012;51.998;7.614;2023-10-19T01:48:47;18.73;;;14.15;;
23670;SDS011;12012;51.998;7.614;2023-10-19T01:51:20;20.30;;;15.48;;
23670;SDS011;12012;51.998;7.614;2023-10-19T01:53:51;19.83;;;13.73;;
23670;SDS011;12012;51.998;7.614;2023-10-19T01:56:17;17.98;;;13.45;;
23670;SDS011;12012;51.998;7.614;2023-10-19T01:58:44;19.23;;;13.95;;
23670;SDS011;12012;51.998;7.614;2023-10-19T02:01:15;24.50;;;16.88;;
23670;SDS011;12012;51.998;7.614;2023-10-19T02:03:54;21.60;;;15.60;;
23670;SDS011;12012;51.998;7.614;2023-10-19T02:06:24;17.40;;;14.13;;
23670;SDS011;12012;51.998;7.614;2023-10-19T02:08:59;17.98;;;13.52;;
23670;SDS011;12012;51.998;7.614;2023-10-19T02:11:47;18.90;;;14.13;;
23670;SDS011;12012;51.998;7.614;2023-10-19T02:14:16;22.23;;;16.17;;
23670;SDS011;12012;51.998;7.614;2023-10-19T02:16:44;16.85;;;12.88;;
23670;SDS011;12012;51.998;7.614;2023-10-19T02:19:12;19.25;;;14.40;;
23670;SDS011;12012;51.998;7.614;2023-10-19T02:21:38;18.35;;;13.10;;
23670;SDS011;12012;51.998;7.614;2023-10-19T02:24:08;17.42;;;13.90;;
23670;SDS011;12012;51.998;7.614;2023-10-19T02:26:39;16.70;;;14.55;;
23670;SDS011;12012;51.998;7.614;2023-10-19T02:29:06;17.40;;;12.65;;
23670;SDS011;12012;51.998;7.614;2023-10-19T02:31:33;15.32;;;11.90;;
23670;SDS011;12012;51.998;7.614;2023-10-19T02:33:59;18.05;;;14.00;;
23670;SDS011;12012;51.998;7.614;2023-10-19T02:36:25;19.60;;;14.70;;
23670;SDS011;12012;51.998;7.614;2023-10-19T02:38:54;15.60;;;11.48;;
23670;SDS011;12012;51.998;7.614;2023-10-19T02:41:23;16.40;;;12.80;;
23670;SDS011;12012;51.998;7.614;2023-10-19T02:43:53;16.00;;;12.20;;
23670;SDS011;12012;51.998;7.614;2023-10-19T02:46:28;16.30;;;12.77;;
23670;SDS011;12012;51.998;7.614;2023-10-19T02:48:54;18.85;;;14.45;;
23670;SDS011;12012;51.998;7.614;2023-10-19T02:51:19;22.35;;;16.98;;
23670;SDS011;12012;51.998;7.614;2023-10-19T02:53:45;13.90;;;11.48;;
23670;SDS011;12012;51.998;7.614;2023-10-19T02:56:12;22.65;;;17.42;;
23670;SDS011;12012;51.998;7.614;2023-10-19T02:58:41;21.08;;;15.27;;
23670;SDS011;12012;51.998;7.614;2023-10-19T03:01:12;18.20;;;14.43;;
23670;SDS011;12012;51.998;7.614;2023-10-19T03:03:42;25.50;;;17.45;;
23670;SDS011;12012;51.998;7.614;2023-10-19T03:06:08;20.77;;;16.20;;
23670;SDS011;12012;51.998;7.614;2023-10-19T03:08:35;20.20;;;14.82;;
23670;SDS011;12012;51.998;7.614;2023-10-19T03:11:00;20.75;;;14.57;;
23670;SDS011;12012;51.998;7.614;2023-10-19T03:13:29;19.65;;;14.07;;
23670;SDS011;12012;51.998;7.614;2023-10-19T03:15:57;17.73;;;13.57;;
23670;SDS011;12012;51.998;7.614;2023-10-19T03:18:25;21.33;;;16.15;;
23670;SDS011;12012;51.998;7.614;2023-10-19T03:20:51;17.27;;;13.75;;
23670;SDS011;12012;51.998;7.614;2023-10-19T03:23:17;14.18;;;11.10;;
23670;SDS011;12012;51.998;7.614;2023-10-19T03:25:42;17.55;;;13.10;;
23670;SDS011;12012;51.998;7.614;2023-10-19T03:28:21;16.17;;;12.02;;
23670;SDS011;12012;51.998;7.614;2023-10-19T03:30:50;18.10;;;13.73;;
23670;SDS011;12012;51.998;7.614;2023-10-19T03:33:16;26.55;;;18.60;;
23670;SDS011;12012;51.998;7.614;2023-10-19T03:35:43;15.50;;;11.73;;
23670;SDS011;12012;51.998;7.614;2023-10-19T03:38:09;16.25;;;11.68;;
23670;SDS011;12012;51.998;7.614;2023-10-19T03:40:41;16.23;;;12.05;;
23670;SDS011;12012;51.998;7.614;2023-10-19T03:43:11;14.95;;;11.60;;
23670;SDS011;12012;51.998;7.614;2023-10-19T03:48:14;17.35;;;13.23;;
23670;SDS011;12012;51.998;7.614;2023-10-19T03:50:41;19.17;;;13.95;;
23670;SDS011;12012;51.998;7.614;2023-10-19T03:53:07;16.38;;;12.82;;
23670;SDS011;12012;51.998;7.614;2023-10-19T03:55:37;14.60;;;11.82;;
23670;SDS011;12012;51.998;7.614;2023-10-19T03:58:03;16.92;;;13.65;;
23670;SDS011;12012;51.998;7.614;2023-10-19T04:00:29;16.98;;;11.98;;
23670;SDS011;12012;51.998;7.614;2023-10-19T04:02:58;15.88;;;11.27;;
23670;SDS011;12012;51.998;7.614;2023-10-19T04:05:24;16.50;;;12.77;;
23670;SDS011;12012;51.998;7.614;2023-10-19T04:07:51;18.27;;;14.40;;
23670;SDS011;12012;51.998;7.614;2023-10-19T04:10:22;17.13;;;12.73;;
23670;SDS011;12012;51.998;7.614;2023-10-19T04:13:00;16.10;;;11.45;;
23670;SDS011;12012;51.998;7.614;2023-10-19T04:15:26;19.33;;;15.02;;
23670;SDS011;12012;51.998;7.614;2023-10-19T04:17:52;15.10;;;12.90;;
23670;SDS011;12012;51.998;7.614;2023-10-19T04:20:20;18.77;;;13.32;;
23670;SDS011;12012;51.998;7.614;2023-10-19T04:22:46;11.32;;;9.95;;
23670;SDS011;12012;51.998;7.614;2023-10-19T04:25:13;12.77;;;10.70;;
23670;SDS011;12012;51.998;7.614;2023-10-19T04:27:43;14.65;;;12.32;;
23670;SDS011;12012;51.998;7.614;2023-10-19T04:30:10;14.73;;;11.80;;
23670;SDS011;12012;51.998;7.614;2023-10-19T04:32:51;18.80;;;14.50;;
23670;SDS011;12012;51.998;7.614;2023-10-19T04:35:18;15.45;;;12.30;;
23670;SDS011;12012;51.998;7.614;2023-10-19T04:37:50;14.65;;;12.02;;
23670;SDS011;12012;51.998;7.614;2023-10-19T04:40:18;16.25;;;12.80;;
23670;SDS011;12012;51.998;7.614;2023-10-19T04:42:44;20.08;;;15.60;;
23670;SDS011;12012;51.998;7.614;2023-10-19T04:45:11;22.38;;;15.60;;
23670;SDS011;12012;51.998;7.614;2023-10-19T04:47:37;16.30;;;12.73;;
23670;SDS011;12012;51.998;7.614;2023-10-19T04:50:03;16.77;;;13.40;;
23670;SDS011;12012;51.998;7.614;2023-10-19T04:52:30;17.83;;;12.57;;
23670;SDS011;12012;51.998;7.614;2023-10-19T04:54:55;18.23;;;13.05;;
23670;SDS011;12012;51.998;7.614;2023-10-19T04:57:22;15.27;;;12.40;;
23670;SDS011;12012;51.998;7.614;2023-10-19T04:59:47;17.02;;;13.13;;
23670;SDS011;12012;51.998;7.614;2023-10-19T05:02:13;24.10;;;17.08;;
23670;SDS011;12012;51.998;7.614;2023-10-19T05:04:39;16.25;;;12.13;;
23670;SDS011;12012;51.998;7.614;2023-10-19T05:07:06;21.20;;;13.93;;
23670;SDS011;12012;51.998;7.614;2023-10-19T05:09:34;19.02;;;15.13;;
23670;SDS011;12012;51.998;7.614;2023-10-19T05:12:03;16.80;;;11.60;;
23670;SDS011;12012;51.998;7.614;2023-10-19T05:14:29;15.80;;;12.25;;
23670;SDS011;12012;51.998;7.614;2023-10-19T05:16:55;19.80;;;13.90;;
23670;SDS011;12012;51.998;7.614;2023-10-19T05:19:21;16.65;;;13.45;;
23670;SDS011;12012;51.998;7.614;2023-10-19T05:21:46;15.15;;;11.73;;
23670;SDS011;12012;51.998;7.614;2023-10-19T05:24:12;17.35;;;13.00;;
23670;SDS011;12012;51.998;7.614;2023-10-19T05:26:38;12.50;;;10.13;;
23670;SDS011;12012;51.998;7.614;2023-10-19T05:29:04;17.55;;;12.95;;
23670;SDS011;12012;51.998;7.614;2023-10-19T05:31:29;15.00;;;11.73;;
23670;SDS011;12012;51.998;7.614;2023-10-19T05:33:56;15.38;;;11.75;;
23670;SDS011;12012;51.998;7.614;2023-10-19T05:36:21;17.65;;;13.38;;
23670;SDS011;12012;51.998;7.614;2023-10-19T05:38:47;18.75;;;13.00;;
23670;SDS011;12012;51.998;7.614;2023-10-19T05:41:12;19.45;;;14.82;;
23670;SDS011;12012;51.998;7.614;2023-10-19T05:43:39;19.38;;;14.98;;
23670;SDS011;12012;51.998;7.614;2023-10-19T05:46:05;16.13;;;12.60;;
23670;SDS011;12012;51.998;7.614;2023-10-19T05:48:30;21.92;;;15.55;;
23670;SDS011;12012;51.998;7.614;2023-10-19T05:50:56;18.30;;;14.48;;
23670;SDS011;12012;51.998;7.614;2023-10-19T05:53:22;22.00;;;15.98;;
23670;SDS011;12012;51.998;7.614;2023-10-19T05:55:50;19.70;;;15.50;;
23670;SDS011;12012;51.998;7.614;2023-10-19T05:58:16;19.13;;;14.05;;
23670;SDS011;12012;51.998;7.614;2023-10-19T06:00:42;17.55;;;12.43;;
23670;SDS011;12012;51.998;7.614;2023-10-19T06:03:07;16.65;;;11.18;;
23670;SDS011;12012;51.998;7.614;2023-10-19T06:05:33;16.17;;;11.27;;
23670;SDS011;12012;51.998;7.614;2023-10-19T06:07:58;15.10;;;11.75;;
23670;SDS011;12012;51.998;7.614;2023-10-19T06:10:25;12.82;;;10.27;;
23670;SDS011;12012;51.998;7.614;2023-10-19T06:12:52;17.77;;;12.63;;
23670;SDS011;12012;51.998;7.614;2023-10-19T06:15:19;14.27;;;9.85;;
23670;SDS011;12012;51.998;7.614;2023-10-19T06:17:47;11.95;;;9.48;;
23670;SDS011;12012;51.998;7.614;2023-10-19T06:20:14;15.63;;;11.50;;
23670;SDS011;12012;51.998;7.614;2023-10-19T06:22:53;15.73;;;10.88;;
23670;SDS011;12012;51.998;7.614;2023-10-19T06:25:21;11.02;;;8.93;;
23670;SDS011;12012;51.998;7.614;2023-10-19T06:27:48;11.10;;;8.73;;
23670;SDS011;12012;51.998;7.614;2023-10-19T06:30:15;13.35;;;10.70;;
23670;SDS011;12012;51.998;7.614;2023-10-19T06:32:47;8.70;;;7.53;;
23670;SDS011;12012;51.998;7.614;2023-10-19T06:35:15;20.42;;;15.70;;
23670;SDS011;12012;51.998;7.614;2023-10-19T06:37:41;18.50;;;13.30;;
23670;SDS011;12012;51.998;7.614;2023-10-19T06:40:07;10.60;;;8.00;;
23670;SDS011;12012;51.998;7.614;2023-10-19T06:42:33;12.07;;;9.63;;
23670;SDS011;12012;51.998;7.614;2023-10-19T06:45:00;13.65;;;11.45;;
23670;SDS011;12012;51.998;7.614;2023-10-19T06:47:26;13.00;;;9.30;;
23670;SDS011;12012;51.998;7.614;2023-10-19T06:49:53;12.25;;;9.63;;
23670;SDS011;12012;51.998;7.614;2023-10-19T06:52:19;13.02;;;9.00;;
23670;SDS011;12012;51.998;7.614;2023-10-19T06:54:44;9.95;;;8.23;;
23670;SDS011;12012;51.998;7.614;2023-10-19T06:57:10;11.98;;;9.43;;
23670;SDS011;12012;51.998;7.614;2023-10-19T06:59:37;11.40;;;8.75;;
23670;SDS011;12012;51.998;7.614;2023-10-19T07:02:04;13.90;;;10.60;;
23670;SDS011;12012;51.998;7.614;2023-10-19T07:04:32;17.05;;;9.40;;
23670;SDS011;12012;51.998;7.614;2023-10-19T07:06:58;10.90;;;9.10;;
23670;SDS011;12012;51.998;7.614;2023-10-19T07:09:25;17.75;;;12.90;;
23670;SDS011;12012;51.998;7.614;2023-10-19T07:11:51;11.25;;;8.15;;
23670;SDS011;12012;51.998;7.614;2023-10-19T07:14:21;9.00;;;7.63;;
23670;SDS011;12012;51.998;7.614;2023-10-19T07:16:56;12.68;;;9.85;;
23670;SDS011;12012;51.998;7.614;2023-10-19T07:19:22;9.20;;;6.68;;
23670;SDS011;12012;51.998;7.614;2023-10-19T07:21:48;10.15;;;7.45;;
23670;SDS011;12012;51.998;7.614;2023-10-19T07:24:15;11.10;;;9.68;;
23670;SDS011;12012;51.998;7.614;2023-10-19T07:26:43;9.20;;;7.40;;
23670;SDS011;12012;51.998;7.614;2023-10-19T07:29:18;9.77;;;7.55;;
23670;SDS011;12012;51.998;7.614;2023-10-19T07:31:46;9.77;;;7.53;;
23670;SDS011;12012;51.998;7.614;2023-10-19T07:34:12;9.95;;;7.50;;
23670;SDS011;12012;51.998;7.614;2023-10-19T07:36:40;21.50;;;14.07;;
23670;SDS011;12012;51.998;7.614;2023-10-19T07:39:08;10.13;;;8.40;;
23670;SDS011;12012;51.998;7.614;2023-10-19T07:41:39;11.43;;;8.48;;
23670;SDS011;12012;51.998;7.614;2023-10-19T07:44:05;8.15;;;6.63;;
23670;SDS011;12012;51.998;7.614;2023-10-19T07:46:31;11.20;;;8.35;;
23670;SDS011;12012;51.998;7.614;2023-10-19T07:48:56;8.23;;;6.90;;
23670;SDS011;12012;51.998;7.614;2023-10-19T07:51:24;13.07;;;9.52;;
23670;SDS011;12012;51.998;7.614;2023-10-19T07:53:59;9.18;;;7.72;;
23670;SDS011;12012;51.998;7.614;2023-10-19T07:56:25;9.05;;;7.13;;
23670;SDS011;12012;51.998;7.614;2023-10-19T07:59:00;10.30;;;9.15;;
23670;SDS011;12012;51.998;7.614;2023-10-19T08:01:25;7.95;;;7.07;;
23670;SDS011;12012;51.998;7.614;2023-10-19T08:03:53;11.75;;;8.27;;
23670;SDS011;12012;51.998;7.614;2023-10-19T08:06:19;11.93;;;8.13;;
23670;SDS011;12012;51.998;7.614;2023-10-19T08:08:47;9.18;;;7.28;;
23670;SDS011;12012;51.998;7.614;2023-10-19T08:11:16;14.32;;;7.95;;
23670;SDS011;12012;51.998;7.614;2023-10-19T08:13:44;11.48;;;8.52;;
23670;SDS011;12012;51.998;7.614;2023-10-19T08:16:10;13.65;;;8.60;;
23670;SDS011;12012;51.998;7.614;2023-10-19T08:18:37;9.00;;;7.10;;
23670;SDS011;12012;51.998;7.614;2023-10-19T08:21:03;7.28;;;5.68;;
23670;SDS011;12012;51.998;7.614;2023-10-19T08:23:28;9.00;;;6.55;;
23670;SDS011;12012;51.998;7.614;2023-10-19T08:25:56;7.72;;;6.43;;
23670;SDS011;12012;51.998;7.614;2023-10-19T08:28:23;15.00;;;10.27;;
23670;SDS011;12012;51.998;7.614;2023-10-19T08:30:49;8.45;;;5.72;;
23670;SDS011;12012;51.998;7.614;2023-10-19T08:33:25;10.52;;;7.10;;
23670;SDS011;12012;51.998;7.614;2023-10-19T08:35:52;11.75;;;7.07;;
23670;SDS011;12012;51.998;7.614;2023-10-19T08:38:19;6.72;;;5.30;;
23670;SDS011;12012;51.998;7.614;2023-10-19T08:40:45;8.80;;;6.25;;
23670;SDS011;12012;51.998;7.614;2023-10-19T08:43:12;11.52;;;6.80;;
23670;SDS011;12012;51.998;7.614;2023-10-19T08:45:43;10.10;;;6.43;;
23670;SDS011;12012;51.998;7.614;2023-10-19T08:48:10;6.00;;;4.93;;
23670;SDS011;12012;51.998;7.614;2023-10-19T08:50:36;13.27;;;6.55;;
23670;SDS011;12012;51.998;7.614;2023-10-19T08:53:06;9.38;;;5.88;;
23670;SDS011;12012;51.998;7.614;2023-10-19T08:55:33;6.43;;;5.18;;
23670;SDS011;12012;51.998;7.614;2023-10-19T08:58:00;9.35;;;7.07;;
23670;SDS011;12012;51.998;7.614;2023-10-19T09:00:26;11.95;;;5.72;;
23670;SDS011;12012;51.998;7.614;2023-10-19T09:02:53;8.80;;;6.03;;
23670;SDS011;12012;51.998;7.614;2023-10-19T09:05:21;6.57;;;4.72;;
23670;SDS011;12012;51.998;7.614;2023-10-19T09:07:53;7.40;;;5.68;;
23670;SDS011;12012;51.998;7.614;2023-10-19T09:10:20;6.38;;;4.43;;
23670;SDS011;12012;51.998;7.614;2023-10-19T09:13:00;8.07;;;4.90;;
23670;SDS011;12012;51.998;7.614;2023-10-19T09:15:27;6.35;;;4.72;;
23670;SDS011;12012;51.998;7.614;2023-10-19T09:17:55;8.70;;;5.10;;
23670;SDS011;12012;51.998;7.614;2023-10-19T09:20:36;5.10;;;3.80;;
23670;SDS011;12012;51.998;7.614;2023-10-19T09:23:02;13.95;;;6.88;;
23670;SDS011;12012;51.998;7.614;2023-10-19T09:25:32;9.90;;;5.63;;
23670;SDS011;12012;51.998;7.614;2023-10-19T09:28:00;8.80;;;5.30;;
23670;SDS011;12012;51.998;7.614;2023-10-19T09:30:27;8.60;;;4.72;;
23670;SDS011;12012;51.998;7.614;2023-10-19T09:32:56;6.78;;;4.43;;
23670;SDS011;12012;51.998;7.614;2023-10-19T09:35:24;10.70;;;4.85;;
23670;SDS011;12012;51.998;7.614;2023-10-19T09:37:55;18.20;;;5.28;;
23670;SDS011;12012;51.998;7.614;2023-10-19T09:40:21;11.85;;;5.18;;
23670;SDS011;12012;51.998;7.614;2023-10-19T09:42:49;9.40;;;4.85;;
23670;SDS011;12012;51.998;7.614;2023-10-19T09:45:19;9.65;;;6.15;;
23670;SDS011;12012;51.998;7.614;2023-10-19T09:47:49;9.50;;;5.05;;
23670;SDS011;12012;51.998;7.614;2023-10-19T09:50:16;10.20;;;4.60;;
23670;SDS011;12012;51.998;7.614;2023-10-19T09:52:42;16.15;;;4.95;;
23670;SDS011;12012;51.998;7.614;2023-10-19T10:00:35;4.97;;;3.40;;
23670;SDS011;12012;51.998;7.614;2023-10-19T10:03:00;7.28;;;4.28;;
23670;SDS011;12012;51.998;7.614;2023-10-19T10:08:41;9.30;;;4.40;;
23670;SDS011;12012;51.998;7.614;2023-10-19T10:11:13;7.03;;;3.85;;
23670;SDS011;12012;51.998;7.614;2023-10-19T10:13:46;7.13;;;3.72;;
23670;SDS011;12012;51.998;7.614;2023-10-19T10:16:21;5.50;;;3.47;;
23670;SDS011;12012;51.998;7.614;2023-10-19T10:18:51;5.40;;;3.10;;
23670;SDS011;12012;51.998;7.614;2023-10-19T10:21:20;6.55;;;3.20;;
23670;SDS011;12012;51.998;7.614;2023-10-19T10:23:55;6.30;;;3.70;;
23670;SDS011;12012;51.998;7.614;2023-10-19T10:26:23;7.05;;;4.00;;
23670;SDS011;12012;51.998;7.614;2023-10-19T10:31:45;7.82;;;3.33;;
23670;SDS011;12012;51.998;7.614;2023-10-19T10:39:33;5.15;;;3.00;;
23670;SDS011;12012;51.998;7.614;2023-10-19T10:42:01;5.18;;;2.85;;
23670;SDS011;12012;51.998;7.614;2023-10-19T10:47:19;6.35;;;3.20;;
23670;SDS011;12012;51.998;7.614;2023-10-19T10:54:53;8.43;;;3.55;;
23670;SDS011;12012;51.998;7.614;2023-10-19T10:57:20;5.20;;;2.92;;
23670;SDS011;12012;51.998;7.614;2023-10-19T10:59:45;6.50;;;3.30;;
23670;SDS011;12012;51.998;7.614;2023-10-19T11:02:18;4.97;;;2.90;;
23670;SDS011;12012;51.998;7.614;2023-10-19T11:04:44;6.60;;;3.70;;
23670;SDS011;12012;51.998;7.614;2023-10-19T11:07:20;8.70;;;3.30;;
23670;SDS011;12012;51.998;7.614;2023-10-19T11:09:49;5.88;;;3.10;;
23670;SDS011;12012;51.998;7.614;2023-10-19T11:12:16;4.85;;;3.13;;
23670;SDS011;12012;51.998;7.614;2023-10-19T11:14:54;6.63;;;3.30;;
23670;SDS011;12012;51.998;7.614;2023-10-19T11:17:21;6.75;;;3.05;;
23670;SDS011;12012;51.998;7.614;2023-10-19T11:19:54;6.03;;;3.13;;
23670;SDS011;12012;51.998;7.614;2023-10-19T11:22:22;5.57;;;3.20;;
23670;SDS011;12012;51.998;7.614;2023-10-19T11:24:51;4.68;;;2.90;;
23670;SDS011;12012;51.998;7.614;2023-10-19T11:27:36;3.47;;;2.72;;
23670;SDS011;12012;51.998;7.614;2023-10-19T11:30:03;4.85;;;2.85;;
23670;SDS011;12012;51.998;7.614;2023-10-19T11:32:36;4.28;;;2.20;;
23670;SDS011;12012;51.998;7.614;2023-10-19T11:35:03;5.57;;;2.30;;
23670;SDS011;12012;51.998;7.614;2023-10-19T11:37:29;5.03;;;2.47;;
23670;SDS011;12012;51.998;7.614;2023-10-19T11:40:09;6.15;;;2.63;;
23670;SDS011;12012;51.998;7.614;2023-10-19T11:42:44;4.10;;;2.00;;
23670;SDS011;12012;51.998;7.614;2023-10-19T11:45:10;4.53;;;2.28;;
23670;SDS011;12012;51.998;7.614;2023-10-19T11:47:39;5.70;;;2.40;;
23670;SDS011;12012;51.998;7.614;2023-10-19T11:50:06;4.50;;;1.60;;
23670;SDS011;12012;51.998;7.614;2023-10-19T11:52:32;3.08;;;1.50;;
23670;SDS011;12012;51.998;7.614;2023-10-19T11:54:58;3.58;;;2.05;;
23670;SDS011;12012;51.998;7.614;2023-10-19T11:57:27;3.90;;;2.00;;
23670;SDS011;12012;51.998;7.614;2023-10-19T11:59:53;3.95;;;1.80;;
23670;SDS011;12012;51.998;7.614;2023-10-19T12:02:19;3.63;;;1.60;;
23670;SDS011;12012;51.998;7.614;2023-10-19T12:04:44;4.88;;;1.70;;
23670;SDS011;12012;51.998;7.614;2023-10-19T12:07:13;3.75;;;2.28;;
23670;SDS011;12012;51.998;7.614;2023-10-19T12:09:39;3.60;;;1.60;;
23670;SDS011;12012;51.998;7.614;2023-10-19T12:12:06;4.78;;;1.50;;
23670;SDS011;12012;51.998;7.614;2023-10-19T12:14:33;2.88;;;1.33;;
23670;SDS011;12012;51.998;7.614;2023-10-19T12:17:00;3.55;;;1.58;;
23670;SDS011;12012;51.998;7.614;2023-10-19T12:19:27;3.85;;;1.35;;
23670;SDS011;12012;51.998;7.614;2023-10-19T12:21:54;5.40;;;1.80;;
23670;SDS011;12012;51.998;7.614;2023-10-19T12:24:20;5.75;;;1.67;;
23670;SDS011;12012;51.998;7.614;2023-10-19T12:26:46;3.30;;;1.60;;
23670;SDS011;12012;51.998;7.614;2023-10-19T12:29:12;5.38;;;2.03;;
23670;SDS011;12012;51.998;7.614;2023-10-19T12:31:41;5.22;;;1.63;;
23670;SDS011;12012;51.998;7.614;2023-10-19T12:34:07;4.45;;;1.67;;
23670;SDS011;12012;51.998;7.614;2023-10-19T12:36:33;4.80;;;2.03;;
23670;SDS011;12012;51.998;7.614;2023-10-19T12:39:00;4.05;;;2.20;;
23670;SDS011;12012;51.998;7.614;2023-10-19T12:41:27;2.75;;;1.48;;
23670;SDS011;12012;51.998;7.614;2023-10-19T12:43:53;6.20;;;2.25;;
23670;SDS011;12012;51.998;7.614;2023-10-19T12:46:48;5.78;;;1.40;;
23670;SDS011;12012;51.998;7.614;2023-10-19T12:49:14;4.10;;;1.58;;
23670;SDS011;12012;51.998;7.614;2023-10-19T12:51:41;3.42;;;1.60;;
23670;SDS011;12012;51.998;7.614;2023-10-19T12:54:11;2.38;;;1.10;;
23670;SDS011;12012;51.998;7.614;2023-10-19T12:56:38;4.30;;;1.60;;
23670;SDS011;12012;51.998;7.614;2023-10-19T12:59:04;2.67;;;1.45;;
23670;SDS011;12012;51.998;7.614;2023-10-19T13:01:33;4.78;;;1.70;;
23670;SDS011;12012;51.998;7.614;2023-10-19T13:04:00;4.10;;;1.48;;
23670;SDS011;12012;51.998;7.614;2023-10-19T13:06:31;7.82;;;1.98;;
23670;SDS011;12012;51.998;7.614;2023-10-19T13:08:58;3.40;;;1.60;;
23670;SDS011;12012;51.998;7.614;2023-10-19T13:11:24;6.75;;;2.45;;
23670;SDS011;12012;51.998;7.614;2023-10-19T13:13:49;3.22;;;1.42;;
23670;SDS011;12012;51.998;7.614;2023-10-19T13:16:15;5.38;;;1.95;;
23670;SDS011;12012;51.998;7.614;2023-10-19T13:18:41;3.67;;;1.77;;
23670;SDS011;12012;51.998;7.614;2023-10-19T13:21:07;3.15;;;1.85;;
23670;SDS011;12012;51.998;7.614;2023-10-19T13:23:40;3.50;;;1.60;;
23670;SDS011;12012;51.998;7.614;2023-10-19T13:26:06;4.65;;;1.80;;
23670;SDS011;12012;51.998;7.614;2023-10-19T13:28:41;6.40;;;1.90;;
23670;SDS011;12012;51.998;7.614;2023-10-19T13:31:07;5.07;;;1.80;;
23670;SDS011;12012;51.998;7.614;2023-10-19T13:33:38;5.32;;;2.05;;
23670;SDS011;12012;51.998;7.614;2023-10-19T13:36:06;5.40;;;1.80;;
23670;SDS011;12012;51.998;7.614;2023-10-19T13:38:32;5.40;;;2.20;;
23670;SDS011;12012;51.998;7.614;2023-10-19T13:40:58;2.70;;;1.70;;
23670;SDS011;12012;51.998;7.614;2023-10-19T13:43:27;6.28;;;2.63;;
23670;SDS011;12012;51.998;7.614;2023-10-19T13:45:53;7.95;;;2.25;;
23670;SDS011;12012;51.998;7.614;2023-10-19T13:48:18;4.97;;;2.15;;
23670;SDS011;12012;51.998;7.614;2023-10-19T13:50:48;8.68;;;2.45;;
23670;SDS011;12012;51.998;7.614;2023-10-19T13:53:14;4.93;;;2.25;;
23670;SDS011;12012;51.998;7.614;2023-10-19T13:55:41;7.93;;;2.70;;
23670;SDS011;12012;51.998;7.614;2023-10-19T13:58:07;6.93;;;2.63;;
23670;SDS011;12012;51.998;7.614;2023-10-19T14:00:33;4.43;;;2.50;;
23670;SDS011;12012;51.998;7.614;2023-10-19T14:02:59;8.90;;;2.50;;
23670;SDS011;12012;51.998;7.614;2023-10-19T14:05:26;7.95;;;2.90;;
23670;SDS011;12012;51.998;7.614;2023-10-19T14:07:52;5.65;;;2.30;;
23670;SDS011;12012;51.998;7.614;2023-10-19T14:10:18;6.05;;;2.30;;
23670;SDS011;12012;51.998;7.614;2023-10-19T14:12:47;4.93;;;2.15;;
23670;SDS011;12012;51.998;7.614;2023-10-19T14:15:15;5.15;;;2.15;;
23670;SDS011;12012;51.998;7.614;2023-10-19T14:17:45;5.68;;;2.55;;
23670;SDS011;12012;51.998;7.614;2023-10-19T14:20:11;7.03;;;2.95;;
23670;SDS011;12012;51.998;7.614;2023-10-19T14:22:42;6.18;;;2.58;;
23670;SDS011;12012;51.998;7.614;2023-10-19T14:25:11;6.35;;;2.38;;
23670;SDS011;12012;51.998;7.614;2023-10-19T14:27:38;4.40;;;2.17;;
23670;SDS011;12012;51.998;7.614;2023-10-19T14:30:08;6.75;;;2.50;;
23670;SDS011;12012;51.998;7.614;2023-10-19T14:32:42;5.45;;;2.30;;
23670;SDS011;12012;51.998;7.614;2023-10-19T14:35:12;5.57;;;2.10;;
23670;SDS011;12012;51.998;7.614;2023-10-19T14:37:50;4.57;;;1.90;;
23670;SDS011;12012;51.998;7.614;2023-10-19T14:40:20;4.95;;;2.28;;
23670;SDS011;12012;51.998;7.614;2023-10-19T14:42:49;5.22;;;2.10;;
23670;SDS011;12012;51.998;7.614;2023-10-19T14:45:20;6.85;;;2.08;;
23670;SDS011;12012;51.998;7.614;2023-10-19T14:47:50;5.28;;;2.28;;
23670;SDS011;12012;51.998;7.614;2023-10-19T14:50:17;4.57;;;1.92;;
23670;SDS011;12012;51.998;7.614;2023-10-19T14:52:45;5.90;;;2.17;;
23670;SDS011;12012;51.998;7.614;2023-10-19T14:55:12;3.92;;;2.00;;
23670;SDS011;12012;51.998;7.614;2023-10-19T14:57:40;5.15;;;2.00;;
23670;SDS011;12012;51.998;7.614;2023-10-19T15:00:08;3.28;;;1.90;;
23670;SDS011;12012;51.998;7.614;2023-10-19T15:02:47;5.90;;;2.20;;
23670;SDS011;12012;51.998;7.614;2023-10-19T15:05:14;3.10;;;1.90;;
23670;SDS011;12012;51.998;7.614;2023-10-19T15:07:43;4.28;;;1.92;;
23670;SDS011;12012;51.998;7.614;2023-10-19T15:10:10;5.88;;;2.33;;
23670;SDS011;12012;51.998;7.614;2023-10-19T15:12:39;5.30;;;2.30;;
23670;SDS011;12012;51.998;7.614;2023-10-19T15:15:06;3.30;;;2.15;;
23670;SDS011;12012;51.998;7.614;2023-10-19T15:17:34;4.28;;;2.08;;
23670;SDS011;12012;51.998;7.614;2023-10-19T15:20:02;3.17;;;1.75;;